createdAt,value
2019-05-12T00:00:33.913Z,98.29
2019-05-12T00:01:33.912Z,98.50
2019-05-12T00:02:33.886Z,97.94
2019-05-12T00:03:33.872Z,97.83
2019-05-12T00:04:33.861Z,97.77
2019-05-12T00:05:33.919Z,97.63
2019-05-12T00:06:33.841Z,98.03
2019-05-12T00:07:33.843Z,97.83
2019-05-12T00:08:33.815Z,98.24
2019-05-12T00:09:33.803Z,97.94
2019-05-12T00:10:33.793Z,97.63
2019-05-12T00:11:33.855Z,97.94
2019-05-12T00:12:33.771Z,97.94
2019-05-12T00:13:33.760Z,97.56
2019-05-12T00:14:33.765Z,98.08
2019-05-12T00:15:33.734Z,97.77
2019-05-12T00:16:33.720Z,97.98
2019-05-12T00:17:33.787Z,97.98
2019-05-12T00:18:33.709Z,98.08
2019-05-12T00:19:33.689Z,98.70
2019-05-12T00:20:33.690Z,98.60
2019-05-12T00:21:36.754Z,98.91
2019-05-12T00:22:33.655Z,99.43
2019-05-12T00:23:33.714Z,99.01
2019-05-12T00:24:33.629Z,99.11
2019-05-12T00:25:33.628Z,98.97
2019-05-12T00:26:33.610Z,99.22
2019-05-12T00:27:33.594Z,99.22
2019-05-12T00:28:33.590Z,99.11
2019-05-12T00:29:33.640Z,99.01
2019-05-12T00:30:33.559Z,99.32
2019-05-12T00:31:33.546Z,99.43
2019-05-12T00:32:33.558Z,99.22
2019-05-12T00:33:33.527Z,99.01
2019-05-12T00:34:33.517Z,98.70
2019-05-12T00:35:33.568Z,99.68
2019-05-12T00:36:33.487Z,98.96
2019-05-12T00:37:33.481Z,99.99
2019-05-12T00:38:33.495Z,99.68
2019-05-12T00:39:33.456Z,99.88
2019-05-12T00:40:33.444Z,99.99
2019-05-12T00:41:33.495Z,99.68
2019-05-12T00:42:33.415Z,99.78
2019-05-12T00:43:33.410Z,99.99
2019-05-12T00:44:33.428Z,99.57
2019-05-12T00:45:33.385Z,99.82
2019-05-12T00:46:33.372Z,99.88
2019-05-12T00:47:33.433Z,99.99
2019-05-12T00:48:33.348Z,99.99
2019-05-12T00:49:33.336Z,99.99
2019-05-12T00:50:33.341Z,99.99
2019-05-12T00:51:33.316Z,99.99
2019-05-12T00:52:33.305Z,99.99
2019-05-12T00:53:39.866Z,99.99
2019-05-12T00:54:34.275Z,99.99
2019-05-12T00:55:33.264Z,99.99
2019-05-12T00:56:33.262Z,99.99
2019-05-12T00:57:33.244Z,99.99
2019-05-12T00:58:33.237Z,99.99
2019-05-12T00:59:33.292Z,99.99
2019-05-12T01:00:33.205Z,99.88
2019-05-12T01:01:33.197Z,99.88
2019-05-12T01:02:33.187Z,99.99
2019-05-12T01:03:33.205Z,99.99
2019-05-12T01:04:33.159Z,99.99
2019-05-12T01:05:33.213Z,99.99
2019-05-12T01:06:33.136Z,99.99
2019-05-12T01:07:33.127Z,99.99
2019-05-12T01:08:33.120Z,99.99
2019-05-12T01:09:33.114Z,99.99
2019-05-12T01:10:33.089Z,99.99
2019-05-12T01:11:33.148Z,99.99
2019-05-12T01:12:33.066Z,99.99
2019-05-12T01:13:33.053Z,99.99
2019-05-12T01:14:33.045Z,99.99
2019-05-12T01:15:33.055Z,99.99
2019-05-12T01:16:33.018Z,99.88
2019-05-12T01:17:33.076Z,99.99
2019-05-12T01:18:32.997Z,99.99
2019-05-12T01:19:32.985Z,99.88
2019-05-12T01:20:32.973Z,99.99
2019-05-12T01:21:32.979Z,99.99
2019-05-12T01:22:32.949Z,99.99
2019-05-12T01:23:33.010Z,99.99
2019-05-12T01:24:32.925Z,99.99
2019-05-12T01:25:32.919Z,99.99
2019-05-12T01:26:32.904Z,99.99
2019-05-12T01:27:32.898Z,99.99
2019-05-12T01:28:32.894Z,99.99
2019-05-12T01:29:32.937Z,99.99
2019-05-12T01:30:32.859Z,99.99
2019-05-12T01:31:32.849Z,99.99
2019-05-12T01:32:32.858Z,99.99
2019-05-12T01:33:32.820Z,99.99
2019-05-12T01:34:32.810Z,99.99
2019-05-12T01:35:32.886Z,99.99
2019-05-12T01:36:32.787Z,99.99
2019-05-12T01:37:32.775Z,99.99
2019-05-12T01:38:32.762Z,99.99
2019-05-12T01:39:32.755Z,99.99
2019-05-12T01:40:32.741Z,99.99
2019-05-12T01:41:32.810Z,99.99
2019-05-12T01:42:32.721Z,99.99
2019-05-12T01:43:32.702Z,99.99
2019-05-12T01:44:32.690Z,99.99
2019-05-12T01:45:32.682Z,99.99
2019-05-12T01:46:32.668Z,99.99
2019-05-12T01:47:32.746Z,99.99
2019-05-12T01:48:32.649Z,99.99
2019-05-12T01:49:32.632Z,99.99
2019-05-12T01:50:32.630Z,99.99
2019-05-12T01:51:32.612Z,99.99
2019-05-12T01:52:32.596Z,99.99
2019-05-12T01:53:32.674Z,99.99
2019-05-12T01:54:32.575Z,99.99
2019-05-12T01:55:32.564Z,99.99
2019-05-12T01:56:32.552Z,99.99
2019-05-12T01:57:32.539Z,99.99
2019-05-12T01:58:32.531Z,99.99
2019-05-12T01:59:32.597Z,99.99
2019-05-12T02:00:32.505Z,99.99
2019-05-12T02:01:32.494Z,99.99
2019-05-12T02:02:32.483Z,99.99
2019-05-12T02:03:32.471Z,99.99
2019-05-12T02:04:32.483Z,99.99
2019-05-12T02:05:32.524Z,99.99
2019-05-12T02:06:32.434Z,99.99
2019-05-12T02:07:32.430Z,99.99
2019-05-12T02:08:32.412Z,99.99
2019-05-12T02:09:32.400Z,99.99
2019-05-12T02:10:32.410Z,99.99
2019-05-12T02:11:32.444Z,99.99
2019-05-12T02:12:32.363Z,99.99
2019-05-12T02:13:32.352Z,99.99
2019-05-12T02:14:32.341Z,99.99
2019-05-12T02:15:32.364Z,99.99
2019-05-12T02:16:32.319Z,99.99
2019-05-12T02:17:32.373Z,99.99
2019-05-12T02:18:32.294Z,99.99
2019-05-12T02:19:32.283Z,99.99
2019-05-12T02:20:32.272Z,99.99
2019-05-12T02:21:32.274Z,99.99
2019-05-12T02:22:32.245Z,99.99
2019-05-12T02:23:32.304Z,99.99
2019-05-12T02:24:32.224Z,99.99
2019-05-12T02:25:32.213Z,99.99
2019-05-12T02:26:32.198Z,99.99
2019-05-12T02:27:32.208Z,99.99
2019-05-12T02:28:32.176Z,99.99
2019-05-12T02:29:32.234Z,99.99
2019-05-12T02:30:32.160Z,99.99
2019-05-12T02:31:32.150Z,99.99
2019-05-12T02:32:43.342Z,99.99
2019-05-12T02:33:35.619Z,99.99
2019-05-12T02:34:34.727Z,99.99
2019-05-12T02:35:35.227Z,99.99
2019-05-12T02:36:34.140Z,99.99
2019-05-12T02:37:35.446Z,99.99
2019-05-12T02:38:33.413Z,99.99
2019-05-12T02:39:35.035Z,99.99
2019-05-12T02:40:34.775Z,99.99
2019-05-12T02:41:34.515Z,99.99
2019-05-12T02:42:34.915Z,99.99
2019-05-12T02:43:34.698Z,99.99
2019-05-12T02:44:34.557Z,99.99
2019-05-12T02:45:35.107Z,99.99
2019-05-12T02:46:34.878Z,99.99
2019-05-12T02:47:34.663Z,99.99
2019-05-12T02:48:31.948Z,99.99
2019-05-12T02:49:34.882Z,99.99
2019-05-12T02:50:35.115Z,99.99
2019-05-12T02:51:34.960Z,99.99
2019-05-12T02:52:34.510Z,99.99
2019-05-12T02:53:34.931Z,99.99
2019-05-12T02:54:50.950Z,99.99
2019-05-12T02:55:34.855Z,99.99
2019-05-12T02:56:35.174Z,99.99
2019-05-12T02:57:34.318Z,99.99
2019-05-12T02:58:34.580Z,99.99
2019-05-12T02:59:34.691Z,99.99
2019-05-12T03:00:34.929Z,99.99
2019-05-12T03:01:34.532Z,99.99
2019-05-12T03:02:34.530Z,99.99
2019-05-12T03:03:35.027Z,99.99
2019-05-12T03:04:34.846Z,99.96
2019-05-12T03:05:34.870Z,99.61
2019-05-12T03:06:31.740Z,99.96
2019-05-12T03:07:34.444Z,99.65
2019-05-12T03:08:34.554Z,99.96
2019-05-12T03:09:34.875Z,99.99
2019-05-12T03:10:31.698Z,99.86
2019-05-12T03:11:31.748Z,99.96
2019-05-12T03:12:34.464Z,99.96
2019-05-12T03:13:34.367Z,99.80
2019-05-12T03:14:39.189Z,99.91
2019-05-12T03:15:36.171Z,99.91
2019-05-12T03:16:34.634Z,99.99
2019-05-12T03:17:35.219Z,99.99
2019-05-12T03:18:34.553Z,99.99
2019-05-12T03:19:34.433Z,99.95
2019-05-12T03:20:34.675Z,99.99
2019-05-12T03:21:35.017Z,99.99
2019-05-12T03:22:31.568Z,99.99
2019-05-12T03:23:31.640Z,99.99
2019-05-12T03:24:34.026Z,99.99
2019-05-12T03:25:35.075Z,99.99
2019-05-12T03:26:34.525Z,99.99
2019-05-12T03:27:31.507Z,99.99
2019-05-12T03:28:31.499Z,99.99
2019-05-12T03:29:34.256Z,99.99
2019-05-12T03:30:37.056Z,99.99
2019-05-12T03:31:38.732Z,99.99
2019-05-12T03:32:37.293Z,99.99
2019-05-12T03:33:36.146Z,99.99
2019-05-12T03:34:37.656Z,99.99
2019-05-12T03:35:39.751Z,99.99
2019-05-12T03:36:39.225Z,99.99
2019-05-12T03:37:35.177Z,99.99
2019-05-12T03:38:31.382Z,99.99
2019-05-12T03:39:34.252Z,99.99
2019-05-12T03:40:31.440Z,99.99
2019-05-12T03:41:31.355Z,99.99
2019-05-12T03:42:31.340Z,99.99
2019-05-12T03:43:31.342Z,99.99
2019-05-12T03:44:31.312Z,99.99
2019-05-12T03:45:31.301Z,99.99
2019-05-12T03:46:31.360Z,99.99
2019-05-12T03:47:31.281Z,99.99
2019-05-12T03:48:34.705Z,99.99
2019-05-12T03:49:31.258Z,99.99
2019-05-12T03:50:34.890Z,99.99
2019-05-12T03:51:31.236Z,99.99
2019-05-12T03:52:34.706Z,99.99
2019-05-12T03:53:34.907Z,99.99
2019-05-12T03:54:31.200Z,99.32
2019-05-12T03:55:36.371Z,99.84
2019-05-12T03:56:34.490Z,99.63
2019-05-12T03:57:34.265Z,99.63
2019-05-12T03:58:34.408Z,99.73
2019-05-12T03:59:34.586Z,98.86
2019-05-12T04:00:31.138Z,98.39
2019-05-12T04:01:31.118Z,98.80
2019-05-12T04:02:33.876Z,98.13
2019-05-12T04:03:34.337Z,98.75
2019-05-12T04:04:34.097Z,98.24
2019-05-12T04:05:34.543Z,98.13
2019-05-12T04:06:34.394Z,97.83
2019-05-12T04:07:34.247Z,97.83
2019-05-12T04:08:31.038Z,98.03
2019-05-12T04:09:31.027Z,97.31
2019-05-12T04:10:31.086Z,97.00
2019-05-12T04:11:31.003Z,96.79
2019-05-12T04:12:34.309Z,96.89
2019-05-12T04:13:33.951Z,97.41
2019-05-12T04:14:30.967Z,97.20
2019-05-12T04:15:30.961Z,97.20
2019-05-12T04:16:31.020Z,97.20
2019-05-12T04:17:30.951Z,97.31
2019-05-12T04:18:30.926Z,98.13
2019-05-12T04:19:34.199Z,97.31
2019-05-12T04:20:30.900Z,98.13
2019-05-12T04:21:30.891Z,98.03
2019-05-12T04:22:30.940Z,98.13
2019-05-12T04:23:30.871Z,97.62
2019-05-12T04:24:30.864Z,97.52
2019-05-12T04:25:46.259Z,97.41
2019-05-12T04:26:35.789Z,97.10
2019-05-12T04:27:30.823Z,97.31
2019-05-12T04:28:30.868Z,97.20
2019-05-12T04:29:30.798Z,97.00
2019-05-12T04:30:30.784Z,97.00
2019-05-12T04:31:30.774Z,97.10
2019-05-12T04:32:30.772Z,97.41
2019-05-12T04:33:30.750Z,97.52
2019-05-12T04:34:34.111Z,97.57
2019-05-12T04:35:30.732Z,97.31
2019-05-12T04:36:30.717Z,97.52
2019-05-12T04:37:30.703Z,97.10
2019-05-12T04:38:30.696Z,96.85
2019-05-12T04:39:30.681Z,97.06
2019-05-12T04:40:30.743Z,97.06
2019-05-12T04:41:30.663Z,97.36
2019-05-12T04:42:30.649Z,97.47
2019-05-12T04:43:30.638Z,97.06
2019-05-12T04:44:30.634Z,96.95
2019-05-12T04:45:30.618Z,97.99
2019-05-12T04:46:30.681Z,97.78
2019-05-12T04:47:30.587Z,98.09
2019-05-12T04:48:30.577Z,97.67
2019-05-12T04:49:30.568Z,97.67
2019-05-12T04:50:30.553Z,97.88
2019-05-12T04:51:30.543Z,98.19
2019-05-12T04:52:30.611Z,97.36
2019-05-12T04:53:30.524Z,96.95
2019-05-12T04:54:30.509Z,97.26
2019-05-12T04:55:30.498Z,97.06
2019-05-12T04:56:30.484Z,97.06
2019-05-12T04:57:30.474Z,97.26
2019-05-12T04:58:30.536Z,97.06
2019-05-12T04:59:30.460Z,97.47
2019-05-12T05:00:30.442Z,96.80
2019-05-12T05:01:30.427Z,96.80
2019-05-12T05:02:30.416Z,96.19
2019-05-12T05:03:30.411Z,97.01
2019-05-12T05:04:30.454Z,97.53
2019-05-12T05:05:30.393Z,97.01
2019-05-12T05:06:30.374Z,97.38
2019-05-12T05:07:30.360Z,96.34
2019-05-12T05:08:30.348Z,97.28
2019-05-12T05:09:30.340Z,96.45
2019-05-12T05:10:30.397Z,96.34
2019-05-12T05:11:30.330Z,96.24
2019-05-12T05:12:30.303Z,96.24
2019-05-12T05:13:30.290Z,96.34
2019-05-12T05:14:30.285Z,96.45
2019-05-12T05:15:30.275Z,96.14
2019-05-12T05:16:30.320Z,96.24
2019-05-12T05:17:30.263Z,96.51
2019-05-12T05:18:30.237Z,96.09
2019-05-12T05:19:30.226Z,96.24
2019-05-12T05:20:30.212Z,96.09
2019-05-12T05:21:30.201Z,96.09
2019-05-12T05:22:30.262Z,95.78
2019-05-12T05:23:30.185Z,96.09
2019-05-12T05:24:30.167Z,96.26
2019-05-12T05:25:30.157Z,95.74
2019-05-12T05:26:30.145Z,95.64
2019-05-12T05:27:30.134Z,95.43
2019-05-12T05:28:30.189Z,95.02
2019-05-12T05:29:30.124Z,94.77
2019-05-12T05:30:30.114Z,94.87
2019-05-12T05:31:30.093Z,95.03
2019-05-12T05:32:30.084Z,94.93
2019-05-12T05:33:30.072Z,94.62
2019-05-12T05:34:30.120Z,93.75
2019-05-12T05:35:35.093Z,93.34
2019-05-12T05:36:31.032Z,92.78
2019-05-12T05:37:30.814Z,91.91
2019-05-12T05:38:31.007Z,90.94
2019-05-12T05:39:30.007Z,90.18
2019-05-12T05:40:30.388Z,90.45
2019-05-12T05:41:29.998Z,88.24
2019-05-12T05:42:32.785Z,88.20
2019-05-12T05:43:33.212Z,86.68
2019-05-12T05:44:36.241Z,85.11
2019-05-12T05:45:31.013Z,83.80
2019-05-12T05:46:29.921Z,83.31
2019-05-12T05:47:29.907Z,82.00
2019-05-12T05:48:32.147Z,78.63
2019-05-12T05:49:30.889Z,78.56
2019-05-12T05:50:29.870Z,79.27
2019-05-12T05:51:29.930Z,81.48
2019-05-12T05:52:33.158Z,82.41
2019-05-12T05:53:30.839Z,84.40
2019-05-12T05:54:31.808Z,85.08
2019-05-12T05:55:30.820Z,87.30
2019-05-12T05:56:39.790Z,82.73
2019-05-12T05:57:30.868Z,82.24
2019-05-12T05:58:29.782Z,81.05
2019-05-12T05:59:31.823Z,81.40
2019-05-12T06:00:30.761Z,78.87
2019-05-12T06:01:29.779Z,80.35
2019-05-12T06:02:32.068Z,81.57
2019-05-12T06:03:30.804Z,81.16
2019-05-12T06:04:29.711Z,82.13
2019-05-12T06:05:31.055Z,82.03
2019-05-12T06:06:29.688Z,81.37
2019-05-12T06:07:35.135Z,81.27
2019-05-12T06:08:30.683Z,81.71
2019-05-12T06:09:29.722Z,79.56
2019-05-12T06:10:36.172Z,82.50
2019-05-12T06:11:30.633Z,81.06
2019-05-12T06:12:29.621Z,81.46
2019-05-12T06:13:31.853Z,79.21
2019-05-12T06:14:29.605Z,80.91
2019-05-12T06:15:34.112Z,79.11
2019-05-12T06:16:30.588Z,78.19
2019-05-12T06:17:29.571Z,79.03
2019-05-12T06:18:29.549Z,78.08
2019-05-12T06:19:29.541Z,76.37
2019-05-12T06:20:29.527Z,74.87
2019-05-12T06:21:34.750Z,74.08
2019-05-12T06:22:30.507Z,71.83
2019-05-12T06:23:34.830Z,72.72
2019-05-12T06:24:30.499Z,71.49
2019-05-12T06:25:44.549Z,71.97
2019-05-12T06:26:34.890Z,71.83
2019-05-12T06:27:32.772Z,71.15
2019-05-12T06:28:31.270Z,72.48
2019-05-12T06:29:30.429Z,71.87
2019-05-12T06:30:29.413Z,70.84
2019-05-12T06:31:29.962Z,71.49
2019-05-12T06:32:29.459Z,71.94
2019-05-12T06:33:31.622Z,72.21
2019-05-12T06:34:29.389Z,70.95
2019-05-12T06:35:30.938Z,71.29
2019-05-12T06:36:30.354Z,71.01
2019-05-12T06:37:29.337Z,69.52
2019-05-12T06:38:31.106Z,70.51
2019-05-12T06:39:30.307Z,67.68
2019-05-12T06:40:30.831Z,69.75
2019-05-12T06:41:30.295Z,71.25
2019-05-12T06:42:29.275Z,70.06
2019-05-12T06:43:34.048Z,69.01
2019-05-12T06:44:30.321Z,68.26
2019-05-12T06:45:36.499Z,68.23
2019-05-12T06:46:30.234Z,67.52
2019-05-12T06:47:29.220Z,66.50
2019-05-12T06:48:30.273Z,66.28
2019-05-12T06:49:29.206Z,69.11
2019-05-12T06:50:37.323Z,69.35
2019-05-12T06:51:30.172Z,67.35
2019-05-12T06:52:29.162Z,66.70
2019-05-12T06:53:31.055Z,65.45
2019-05-12T06:54:29.141Z,66.23
2019-05-12T06:55:34.326Z,65.08
2019-05-12T06:56:30.189Z,65.43
2019-05-12T06:57:29.152Z,64.20
2019-05-12T06:58:32.140Z,63.16
2019-05-12T06:59:30.080Z,62.45
2019-05-12T07:00:30.613Z,62.40
2019-05-12T07:01:29.074Z,62.51
2019-05-12T07:02:30.307Z,63.58
2019-05-12T07:03:31.518Z,63.07
2019-05-12T07:04:29.023Z,62.84
2019-05-12T07:05:33.759Z,62.66
2019-05-12T07:06:30.004Z,62.54
2019-05-12T07:07:33.471Z,63.90
2019-05-12T07:08:32.823Z,62.93
2019-05-12T07:09:32.626Z,61.40
2019-05-12T07:10:43.365Z,62.35
2019-05-12T07:11:41.679Z,63.33
2019-05-12T07:12:33.622Z,60.28
2019-05-12T07:13:29.929Z,62.14
2019-05-12T07:14:28.976Z,60.75
2019-05-12T07:15:29.362Z,59.63
2019-05-12T07:16:30.447Z,59.60
2019-05-12T07:17:28.870Z,58.96
2019-05-12T07:18:32.840Z,59.91
2019-05-12T07:19:29.952Z,60.16
2019-05-12T07:20:29.210Z,58.97
2019-05-12T07:21:29.825Z,61.44
2019-05-12T07:22:31.249Z,61.22
2019-05-12T07:23:30.274Z,61.47
2019-05-12T07:24:28.795Z,60.86
2019-05-12T07:25:31.320Z,59.28
2019-05-12T07:26:28.773Z,58.36
2019-05-12T07:27:36.708Z,58.44
2019-05-12T07:28:30.320Z,58.48
2019-05-12T07:29:29.733Z,57.97
2019-05-12T07:30:31.722Z,57.51
2019-05-12T07:31:29.787Z,57.99
2019-05-12T07:32:28.704Z,56.77
2019-05-12T07:33:32.798Z,57.66
2019-05-12T07:34:29.678Z,57.46
2019-05-12T07:35:28.666Z,56.04
2019-05-12T07:36:28.654Z,55.32
2019-05-12T07:37:30.082Z,54.21
2019-05-12T07:38:28.664Z,54.13
2019-05-12T07:39:28.618Z,55.63
2019-05-12T07:40:30.103Z,56.01
2019-05-12T07:41:28.596Z,56.01
2019-05-12T07:42:31.131Z,54.57
2019-05-12T07:43:29.636Z,54.36
2019-05-12T07:44:34.355Z,53.19
2019-05-12T07:45:29.550Z,53.30
2019-05-12T07:46:28.548Z,53.40
2019-05-12T07:47:29.410Z,54.26
2019-05-12T07:48:28.516Z,54.64
2019-05-12T07:49:34.520Z,54.49
2019-05-12T07:50:29.496Z,56.01
2019-05-12T07:51:30.257Z,55.91
2019-05-12T07:52:29.470Z,53.63
2019-05-12T07:53:28.457Z,51.51
2019-05-12T07:54:29.452Z,53.52
2019-05-12T07:55:29.502Z,53.09
2019-05-12T07:56:32.609Z,50.31
2019-05-12T07:57:29.411Z,52.51
2019-05-12T07:58:28.421Z,51.27
2019-05-12T07:59:38.799Z,51.47
2019-05-12T08:00:29.378Z,51.25
2019-05-12T08:01:28.429Z,53.91
2019-05-12T08:02:31.733Z,54.26
2019-05-12T08:03:29.364Z,51.75
2019-05-12T08:04:31.648Z,53.60
2019-05-12T08:05:29.319Z,54.05
2019-05-12T08:06:32.595Z,52.73
2019-05-12T08:07:30.030Z,54.26
2019-05-12T08:08:28.286Z,52.56
2019-05-12T08:09:32.427Z,52.73
2019-05-12T08:10:29.261Z,52.33
2019-05-12T08:11:28.695Z,50.60
2019-05-12T08:12:29.248Z,51.39
2019-05-12T08:13:31.201Z,49.24
2019-05-12T08:14:29.560Z,47.54
2019-05-12T08:15:28.205Z,47.36
2019-05-12T08:16:30.212Z,48.25
2019-05-12T08:17:28.182Z,48.83
2019-05-12T08:18:30.541Z,47.70
2019-05-12T08:19:29.221Z,47.54
2019-05-12T08:20:28.154Z,49.27
2019-05-12T08:21:28.136Z,48.33
2019-05-12T08:22:29.441Z,48.71
2019-05-12T08:23:28.115Z,47.98
2019-05-12T08:24:28.110Z,48.21
2019-05-12T08:25:28.910Z,48.03
2019-05-12T08:26:28.084Z,48.82
2019-05-12T08:27:28.067Z,48.90
2019-05-12T08:28:36.083Z,46.54
2019-05-12T08:29:29.045Z,47.96
2019-05-12T08:30:28.040Z,47.63
2019-05-12T08:31:33.070Z,47.51
2019-05-12T08:32:29.009Z,45.97
2019-05-12T08:33:28.001Z,45.95
2019-05-12T08:34:27.996Z,44.05
2019-05-12T08:35:34.798Z,44.27
2019-05-12T08:36:29.031Z,45.08
2019-05-12T08:37:27.972Z,45.26
2019-05-12T08:38:27.945Z,44.25
2019-05-12T08:39:27.932Z,41.73
2019-05-12T08:40:27.928Z,44.07
2019-05-12T08:41:27.906Z,44.05
2019-05-12T08:42:27.996Z,43.32
2019-05-12T08:43:27.891Z,43.59
2019-05-12T08:44:33.747Z,44.95
2019-05-12T08:45:34.117Z,43.46
2019-05-12T08:46:28.851Z,41.47
2019-05-12T08:47:28.972Z,43.43
2019-05-12T08:48:28.897Z,42.32
2019-05-12T08:49:35.834Z,44.11
2019-05-12T08:50:31.520Z,44.17
2019-05-12T08:51:27.791Z,44.05
2019-05-12T08:52:30.473Z,42.84
2019-05-12T08:53:28.774Z,44.33
2019-05-12T08:54:27.835Z,44.11
2019-05-12T08:55:31.229Z,42.60
2019-05-12T08:56:27.739Z,44.21
2019-05-12T08:57:34.891Z,42.40
2019-05-12T08:58:33.563Z,43.26
2019-05-12T08:59:28.772Z,45.17
2019-05-12T09:00:27.697Z,43.74
2019-05-12T09:01:30.760Z,44.43
2019-05-12T09:02:27.672Z,45.16
2019-05-12T09:03:30.552Z,42.70
2019-05-12T09:04:27.643Z,42.46
2019-05-12T09:05:33.693Z,40.82
2019-05-12T09:06:28.621Z,41.61
2019-05-12T09:07:30.428Z,42.01
2019-05-12T09:08:28.617Z,41.51
2019-05-12T09:09:27.586Z,39.92
2019-05-12T09:10:27.577Z,41.16
2019-05-12T09:11:27.640Z,41.22
2019-05-12T09:12:27.552Z,39.07
2019-05-12T09:13:27.541Z,39.34
2019-05-12T09:14:27.532Z,38.81
2019-05-12T09:15:27.520Z,39.74
2019-05-12T09:16:27.507Z,39.78
2019-05-12T09:17:27.569Z,40.70
2019-05-12T09:18:33.497Z,39.90
2019-05-12T09:19:28.474Z,40.20
2019-05-12T09:20:27.461Z,40.20
2019-05-12T09:21:31.804Z,39.56
2019-05-12T09:22:28.497Z,38.13
2019-05-12T09:23:32.812Z,38.70
2019-05-12T09:24:28.427Z,38.46
2019-05-12T09:25:27.412Z,36.52
2019-05-12T09:26:28.655Z,37.18
2019-05-12T09:27:27.388Z,37.66
2019-05-12T09:28:27.435Z,36.57
2019-05-12T09:29:27.367Z,36.66
2019-05-12T09:30:27.369Z,37.74
2019-05-12T09:31:29.428Z,38.26
2019-05-12T09:32:27.329Z,41.05
2019-05-12T09:33:31.719Z,39.42
2019-05-12T09:34:29.342Z,35.26
2019-05-12T09:35:28.743Z,36.99
2019-05-12T09:36:28.286Z,36.49
2019-05-12T09:37:30.862Z,36.80
2019-05-12T09:38:28.257Z,36.87
2019-05-12T09:39:27.247Z,37.84
2019-05-12T09:40:27.300Z,35.50
2019-05-12T09:41:27.225Z,37.13
2019-05-12T09:42:29.987Z,38.98
2019-05-12T09:43:27.199Z,38.04
2019-05-12T09:44:30.396Z,37.80
2019-05-12T09:45:27.196Z,36.68
2019-05-12T09:46:28.313Z,36.18
2019-05-12T09:47:28.348Z,37.02
2019-05-12T09:48:27.143Z,37.70
2019-05-12T09:49:31.326Z,39.14
2019-05-12T09:50:28.122Z,37.02
2019-05-12T09:51:27.130Z,38.07
2019-05-12T09:52:27.318Z,36.40
2019-05-12T09:53:27.091Z,37.80
2019-05-12T09:54:35.387Z,36.20
2019-05-12T09:55:28.067Z,35.30
2019-05-12T09:56:27.056Z,36.05
2019-05-12T09:57:32.513Z,36.98
2019-05-12T09:58:28.115Z,37.75
2019-05-12T09:59:27.021Z,37.05
2019-05-12T10:00:30.321Z,36.13
2019-05-12T10:01:29.364Z,34.78
2019-05-12T10:02:27.994Z,36.53
2019-05-12T10:03:30.891Z,35.05
2019-05-12T10:04:28.034Z,35.23
2019-05-12T10:05:30.410Z,33.93
2019-05-12T10:06:27.973Z,35.36
2019-05-12T10:07:26.933Z,34.93
2019-05-12T10:08:29.351Z,35.19
2019-05-12T10:09:27.909Z,34.76
2019-05-12T10:10:29.140Z,34.46
2019-05-12T10:11:27.886Z,34.26
2019-05-12T10:12:29.702Z,34.31
2019-05-12T10:13:30.093Z,34.11
2019-05-12T10:14:26.853Z,33.84
2019-05-12T10:15:28.801Z,34.69
2019-05-12T10:16:26.900Z,32.06
2019-05-12T10:17:30.147Z,33.06
2019-05-12T10:18:26.815Z,33.63
2019-05-12T10:19:26.821Z,33.68
2019-05-12T10:20:29.176Z,33.96
2019-05-12T10:21:27.842Z,33.44
2019-05-12T10:22:30.059Z,33.21
2019-05-12T10:23:27.777Z,34.53
2019-05-12T10:24:26.777Z,33.08
2019-05-12T10:25:28.560Z,33.83
2019-05-12T10:26:26.724Z,32.37
2019-05-12T10:27:31.759Z,31.86
2019-05-12T10:28:27.700Z,33.68
2019-05-12T10:29:30.667Z,35.13
2019-05-12T10:30:27.678Z,35.98
2019-05-12T10:31:29.512Z,34.89
2019-05-12T10:32:27.739Z,37.89
2019-05-12T10:33:26.647Z,37.98
2019-05-12T10:34:29.225Z,41.67
2019-05-12T10:35:27.623Z,40.04
2019-05-12T10:36:26.613Z,38.04
2019-05-12T10:37:29.355Z,36.58
2019-05-12T10:38:26.680Z,35.41
2019-05-12T10:39:26.584Z,33.48
2019-05-12T10:40:26.573Z,33.84
2019-05-12T10:41:26.562Z,33.39
2019-05-12T10:42:26.550Z,33.78
2019-05-12T10:43:26.538Z,35.51
2019-05-12T10:44:35.560Z,36.08
2019-05-12T10:45:27.524Z,37.72
2019-05-12T10:46:28.617Z,36.92
2019-05-12T10:47:26.509Z,35.16
2019-05-12T10:48:26.485Z,34.33
2019-05-12T10:49:26.476Z,33.59
2019-05-12T10:50:26.535Z,33.54
2019-05-12T10:51:26.462Z,33.03
2019-05-12T10:52:29.326Z,34.46
2019-05-12T10:53:27.425Z,32.33
2019-05-12T10:54:26.417Z,33.00
2019-05-12T10:55:26.422Z,30.21
2019-05-12T10:56:26.459Z,30.27
2019-05-12T10:57:26.384Z,30.07
2019-05-12T10:58:26.389Z,30.77
2019-05-12T10:59:32.937Z,31.65
2019-05-12T11:00:27.353Z,32.56
2019-05-12T11:01:26.388Z,33.83
2019-05-12T11:02:30.457Z,33.48
2019-05-12T11:03:26.319Z,30.59
2019-05-12T11:04:35.583Z,31.18
2019-05-12T11:05:27.296Z,29.48
2019-05-12T11:06:26.295Z,30.35
2019-05-12T11:07:28.095Z,32.54
2019-05-12T11:08:26.329Z,32.61
2019-05-12T11:09:30.064Z,30.01
2019-05-12T11:10:27.241Z,30.36
2019-05-12T11:11:26.232Z,30.14
2019-05-12T11:12:29.128Z,30.32
2019-05-12T11:13:26.213Z,31.07
2019-05-12T11:14:30.288Z,31.41
2019-05-12T11:15:26.287Z,31.31
2019-05-12T11:16:31.070Z,35.21
2019-05-12T11:17:27.164Z,35.23
2019-05-12T11:18:30.423Z,35.78
2019-05-12T11:19:26.150Z,33.89
2019-05-12T11:20:26.199Z,33.42
2019-05-12T11:21:26.133Z,32.06
2019-05-12T11:22:26.115Z,30.46
2019-05-12T11:23:26.103Z,30.61
2019-05-12T11:24:26.097Z,29.97
2019-05-12T11:25:26.080Z,31.32
2019-05-12T11:26:26.142Z,32.53
2019-05-12T11:27:26.060Z,34.56
2019-05-12T11:28:26.055Z,32.29
2019-05-12T11:29:26.041Z,32.45
2019-05-12T11:30:26.087Z,31.32
2019-05-12T11:31:26.018Z,32.43
2019-05-12T11:32:28.875Z,30.55
2019-05-12T11:33:26.994Z,30.52
2019-05-12T11:34:25.994Z,30.77
2019-05-12T11:35:25.972Z,29.78
2019-05-12T11:36:25.969Z,31.37
2019-05-12T11:37:28.959Z,33.20
2019-05-12T11:38:26.012Z,32.68
2019-05-12T11:39:30.663Z,32.32
2019-05-12T11:40:26.917Z,32.69
2019-05-12T11:41:28.443Z,32.41
2019-05-12T11:42:25.909Z,31.58
2019-05-12T11:43:25.888Z,29.81
2019-05-12T11:44:25.953Z,28.88
2019-05-12T11:45:25.872Z,29.25
2019-05-12T11:46:26.581Z,30.55
2019-05-12T11:47:26.039Z,32.11
2019-05-12T11:48:25.833Z,31.34
2019-05-12T11:49:26.823Z,35.11
2019-05-12T11:50:25.872Z,33.34
2019-05-12T11:51:29.180Z,31.26
2019-05-12T11:52:25.789Z,32.59
2019-05-12T11:53:31.094Z,32.62
2019-05-12T11:54:28.066Z,33.78
2019-05-12T11:55:29.789Z,33.71
2019-05-12T11:56:26.807Z,33.76
2019-05-12T11:57:30.124Z,35.06
2019-05-12T11:58:25.752Z,35.28
2019-05-12T11:59:25.717Z,35.39
2019-05-12T12:00:25.715Z,35.21
2019-05-12T12:01:26.415Z,34.26
2019-05-12T12:02:30.248Z,32.39
2019-05-12T12:03:25.668Z,35.93
2019-05-12T12:04:25.657Z,36.16
2019-05-12T12:05:25.647Z,38.23
2019-05-12T12:06:25.698Z,38.15
2019-05-12T12:07:25.627Z,38.17
2019-05-12T12:08:35.664Z,38.97
2019-05-12T12:09:26.599Z,37.46
2019-05-12T12:10:29.298Z,34.84
2019-05-12T12:11:28.181Z,33.04
2019-05-12T12:12:25.569Z,31.30
2019-05-12T12:13:29.838Z,30.51
2019-05-12T12:14:25.611Z,31.79
2019-05-12T12:15:30.059Z,30.65
2019-05-12T12:16:25.524Z,30.91
2019-05-12T12:17:31.040Z,29.93
2019-05-12T12:18:26.505Z,29.20
2019-05-12T12:19:34.143Z,28.99
2019-05-12T12:20:26.559Z,29.30
2019-05-12T12:21:25.505Z,30.74
2019-05-12T12:22:29.587Z,33.41
2019-05-12T12:23:25.448Z,31.63
2019-05-12T12:24:29.748Z,28.19
2019-05-12T12:25:26.425Z,27.00
2019-05-12T12:26:30.070Z,28.66
2019-05-12T12:27:26.406Z,30.38
2019-05-12T12:28:25.392Z,31.79
2019-05-12T12:29:25.383Z,32.44
2019-05-12T12:30:25.369Z,32.56
2019-05-12T12:31:29.774Z,32.44
2019-05-12T12:32:26.418Z,30.90
2019-05-12T12:33:25.338Z,30.92
2019-05-12T12:34:30.034Z,30.11
2019-05-12T12:35:26.320Z,30.76
2019-05-12T12:36:25.306Z,28.59
2019-05-12T12:37:25.733Z,28.04
2019-05-12T12:38:25.347Z,28.10
2019-05-12T12:39:25.274Z,26.78
2019-05-12T12:40:25.262Z,26.86
2019-05-12T12:41:25.253Z,27.90
2019-05-12T12:42:25.239Z,26.84
2019-05-12T12:43:25.232Z,29.48
2019-05-12T12:44:25.298Z,31.82
2019-05-12T12:45:25.209Z,33.76
2019-05-12T12:46:25.219Z,34.92
2019-05-12T12:47:25.182Z,35.86
2019-05-12T12:48:29.590Z,37.87
2019-05-12T12:49:25.162Z,37.85
2019-05-12T12:50:28.569Z,36.08
2019-05-12T12:51:26.137Z,35.46
2019-05-12T12:52:25.131Z,33.00